Time;durP1;ratioP1;P1;durP2;ratioP2;P2;SDS_P1;SDS_P2;PMS_P1;PMS_P2;Temp;Humidity;BMP_temperature;BMP_pressure;BME280_temperature;BME280_humidity;BME280_pressure;Samples;Min_cycle;Max_cycle;Signal;HPM_P1;HPM_P2
2023/01/05 00:02:49;;;;;;;19.45;13.10;;;;;;;6.15;93.23;100794.44;10407579;28;20034;-90
2023/01/05 00:07:50;;;;;;;19.67;14.25;;;;;;;5.96;93.34;100776.69;10396751;28;20049;-91
2023/01/05 00:23:32;;;;;;;21.70;14.50;;;;;;;5.74;93.53;100772.28;10380938;28;20048;-94
2023/01/05 00:28:33;;;;;;;17.60;12.23;;;;;;;5.87;93.33;100801.16;10395643;28;20038;-93
2023/01/05 00:33:33;;;;;;;17.08;10.18;;;;;;;5.61;91.98;100784.81;10395233;28;20046;-93
2023/01/05 00:38:34;;;;;;;18.02;9.75;;;;;;;5.61;91.29;100812.00;10394581;28;20184;-91
2023/01/05 00:43:35;;;;;;;15.70;9.63;;;;;;;5.41;91.07;100789.88;10393580;28;20108;-92
2023/01/05 00:48:36;;;;;;;15.85;9.68;;;;;;;5.12;89.81;100767.72;10409477;28;20087;-91
2023/01/05 00:53:37;;;;;;;15.18;8.88;;;;;;;5.25;90.41;100784.19;10412555;28;20037;-89
2023/01/05 00:58:37;;;;;;;14.07;9.65;;;;;;;5.19;90.47;100768.88;10394365;28;20448;-91
2023/01/05 01:03:38;;;;;;;14.07;10.15;;;;;;;4.92;90.44;100730.63;10377207;28;20065;-91
2023/01/05 01:08:39;;;;;;;17.45;10.77;;;;;;;5.36;90.82;100810.53;10377974;28;20120;-91
2023/01/05 01:13:40;;;;;;;17.05;10.95;;;;;;;5.32;90.98;100816.16;10413031;28;20042;-91
2023/01/05 01:18:41;;;;;;;16.00;9.98;;;;;;;5.09;90.74;100781.13;10418313;28;20110;-91
2023/01/05 01:23:43;;;;;;;13.95;10.02;;;;;;;5.31;90.99;100820.56;10417996;28;20187;-91
2023/01/05 01:28:46;;;;;;;15.07;9.48;;;;;;;5.13;91.20;100779.91;10417463;28;20040;-90
2023/01/05 01:33:47;;;;;;;18.30;11.18;;;;;;;5.23;91.32;100801.91;10417615;28;20493;-90
2023/01/05 01:38:48;;;;;;;16.20;10.43;;;;;;;5.10;91.88;100820.50;10417187;28;20053;-90
2023/01/05 01:43:56;;;;;;;17.05;10.70;;;;;;;5.13;91.98;100808.88;10400070;28;20497;-90
2023/01/05 01:49:00;;;;;;;16.10;10.20;;;;;;;4.00;92.11;100634.41;10408089;28;20127;-90
2023/01/05 01:54:06;;;;;;;14.90;10.07;;;;;;;4.85;91.96;100783.91;10392631;28;20088;-92
2023/01/05 01:59:07;;;;;;;17.55;10.48;;;;;;;4.99;91.78;100808.16;10392380;28;20053;-92
2023/01/05 02:04:09;;;;;;;16.95;10.32;;;;;;;4.11;91.98;100673.84;10391685;28;20038;-87
2023/01/05 02:09:10;;;;;;;17.38;10.57;;;;;;;4.61;91.32;100753.28;10376394;28;20042;-89
2023/01/05 02:14:30;;;;;;;15.85;11.18;;;;;;;5.13;92.18;100840.47;10390793;28;20034;-89
2023/01/05 02:20:20;;;;;;;15.48;10.30;;;;;;;5.12;92.39;100838.81;10390399;28;20052;-89
2023/01/05 02:25:21;;;;;;;14.88;9.20;;;;;;;5.08;91.78;100850.53;10379277;28;20478;-89
2023/01/05 02:30:40;;;;;;;13.65;9.95;;;;;;;5.10;92.23;100859.16;10391219;28;20046;-90
2023/01/05 02:35:57;;;;;;;14.90;10.07;;;;;;;5.10;92.12;100864.41;10390714;28;20524;-89
2023/01/05 02:41:23;;;;;;;14.85;10.05;;;;;;;4.95;92.04;100846.22;10396888;28;20034;-88
2023/01/05 02:46:23;;;;;;;13.40;9.75;;;;;;;4.71;91.54;100829.69;10413638;28;20575;-92
2023/01/05 02:51:34;;;;;;;14.02;9.45;;;;;;;4.58;91.41;100825.38;10430721;28;20106;-92
2023/01/05 02:57:16;;;;;;;14.40;9.15;;;;;;;4.68;91.01;100882.56;10431532;28;20052;-91
2023/01/05 03:02:26;;;;;;;13.05;8.85;;;;;;;3.91;90.20;100784.94;10413028;28;20042;-89
2023/01/05 03:07:30;;;;;;;15.85;9.82;;;;;;;4.35;89.70;100886.78;10413982;28;20094;-89
2023/01/05 03:18:08;;;;;;;16.00;8.63;;;;;;;3.36;88.26;100753.06;10413831;28;20076;-84
2023/01/05 03:39:31;;;;;;;13.27;8.00;;;;;;;3.41;87.38;100814.81;10398988;28;20041;-88
2023/01/05 03:44:36;;;;;;;11.25;7.85;;;;;;;3.71;86.95;100900.25;10416128;28;20057;-87
2023/01/05 03:49:37;;;;;;;11.40;7.82;;;;;;;3.44;86.95;100887.28;10387464;28;20103;-87
2023/01/05 03:54:38;;;;;;;10.50;7.43;;;;;;;3.66;86.96;100912.84;10399431;28;20049;-90
2023/01/05 03:59:39;;;;;;;10.82;7.13;;;;;;;3.80;86.97;100925.00;10397810;28;20038;-88
2023/01/05 04:04:40;;;;;;;11.60;6.72;;;;;;;3.68;86.40;100916.22;10402659;28;20083;-87
2023/01/05 04:09:40;;;;;;;10.65;7.07;;;;;;;3.80;85.90;100919.72;10408392;28;20092;-87
2023/01/05 04:16:56;;;;;;;9.48;6.30;;;;;;;3.37;84.67;100851.88;10530916;27;20442;-87
2023/01/05 04:21:56;;;;;;;10.85;5.82;;;;;;;3.43;84.57;100869.81;10532280;28;20044;-87
2023/01/05 04:26:57;;;;;;;8.43;5.38;;;;;;;3.35;84.15;100851.13;10530631;28;20043;-88
2023/01/05 04:31:58;;;;;;;8.93;5.65;;;;;;;3.67;83.45;100912.72;10447268;28;20061;-87
2023/01/05 04:36:59;;;;;;;7.57;5.68;;;;;;;2.80;83.16;100789.41;10448943;28;20124;-88
2023/01/05 04:42:00;;;;;;;7.63;5.43;;;;;;;3.64;82.89;100931.34;10458136;28;20045;-88
2023/01/05 04:47:01;;;;;;;8.40;5.68;;;;;;;3.08;82.50;100828.53;10463260;28;20087;-88
2023/01/05 04:52:01;;;;;;;9.27;5.97;;;;;;;3.54;82.61;100885.66;10476767;28;20385;-89
2023/01/05 04:57:04;;;;;;;8.52;5.10;;;;;;;3.63;82.02;100889.44;10447116;28;20124;-89
2023/01/05 05:02:05;;;;;;;9.10;6.22;;;;;;;3.89;82.03;100940.97;10447453;28;20045;-89
2023/01/05 05:07:06;;;;;;;8.55;5.47;;;;;;;3.56;81.96;100890.81;10446694;28;20099;-90
2023/01/05 05:12:07;;;;;;;10.35;5.28;;;;;;;3.76;81.94;100911.22;10483365;28;20044;-87
2023/01/05 05:17:08;;;;;;;6.55;4.70;;;;;;;4.09;81.55;100946.56;10488431;28;20136;-90
2023/01/05 05:22:10;;;;;;;8.75;5.35;;;;;;;4.08;81.46;100916.78;10486589;28;20132;-89
2023/01/05 05:27:10;;;;;;;6.28;4.07;;;;;;;4.21;80.91;100940.41;10442038;28;20104;-89
2023/01/05 05:32:11;;;;;;;7.43;4.30;;;;;;;3.83;81.28;100857.31;10430011;28;20036;-91
2023/01/05 05:37:12;;;;;;;7.85;4.20;;;;;;;4.36;81.21;100943.69;10459707;28;20098;-89
2023/01/05 05:42:13;;;;;;;8.80;3.88;;;;;;;3.81;81.21;100842.59;10452609;28;20072;-87
2023/01/05 05:47:14;;;;;;;6.38;3.70;;;;;;;4.45;80.71;100937.75;10413627;28;20054;-79
2023/01/05 05:52:14;;;;;;;14.35;8.75;;;;;;;4.24;81.03;100898.09;10451478;28;20055;-80
2023/01/05 05:57:16;;;;;;;10.60;4.20;;;;;;;4.53;80.04;100943.28;10431177;28;20079;-79
2023/01/05 06:02:18;;;;;;;6.88;4.28;;;;;;;3.77;80.09;100818.34;10419632;28;20038;-79
2023/01/05 06:07:19;;;;;;;12.27;4.90;;;;;;;4.32;79.88;100913.31;10434429;28;20127;-77
2023/01/05 06:12:20;;;;;;;7.60;4.75;;;;;;;4.42;80.04;100937.97;10414645;28;20404;-79
2023/01/05 06:17:21;;;;;;;8.18;4.10;;;;;;;4.59;79.93;100952.53;10416898;28;20053;-79
2023/01/05 06:22:22;;;;;;;8.68;4.75;;;;;;;4.45;79.69;100910.59;10416237;28;20461;-79
2023/01/05 06:27:26;;;;;;;8.65;3.80;;;;;;;4.63;79.20;100929.44;10427867;28;20076;-87
2023/01/05 06:32:26;;;;;;;6.80;4.10;;;;;;;4.63;79.24;100914.47;10429358;28;20041;-79
2023/01/05 06:37:27;;;;;;;5.53;3.35;;;;;;;4.32;78.65;100858.91;10430602;28;20045;-79
2023/01/05 06:42:28;;;;;;;5.97;3.15;;;;;;;4.49;78.60;100883.97;10432291;28;20464;-79
2023/01/05 06:47:29;;;;;;;8.73;3.25;;;;;;;4.48;78.57;100853.34;10447048;28;20041;-79
2023/01/05 06:52:35;;;;;;;7.25;3.22;;;;;;;5.18;77.31;100956.84;10456372;28;20044;-80
2023/01/05 06:57:36;;;;;;;6.57;3.22;;;;;;;4.70;76.63;100891.19;10456151;28;20033;-78
2023/01/05 07:02:37;;;;;;;6.60;3.00;;;;;;;4.91;75.50;100909.78;10456517;28;20040;-79
2023/01/05 07:07:38;;;;;;;4.65;2.72;;;;;;;4.97;75.17;100938.28;10452113;28;20098;-77
2023/01/05 07:12:39;;;;;;;4.18;2.60;;;;;;;4.86;74.75;100923.28;10454400;28;20060;-77
2023/01/05 07:17:40;;;;;;;6.57;2.80;;;;;;;4.42;75.31;100856.44;10440000;28;20045;-73
2023/01/05 07:22:41;;;;;;;4.75;3.33;;;;;;;4.86;75.18;100949.59;10444360;28;20135;-75
2023/01/05 07:27:42;;;;;;;7.20;3.47;;;;;;;4.90;74.31;100961.56;10442302;28;20135;-77
2023/01/05 07:32:42;;;;;;;6.70;3.45;;;;;;;4.94;74.35;100947.25;10440199;28;20036;-78
2023/01/05 07:37:43;;;;;;;6.13;3.85;;;;;;;4.84;74.13;100911.19;10432749;28;20045;-78
2023/01/05 07:42:49;;;;;;;6.18;3.47;;;;;;;4.65;72.69;100886.28;10427866;28;20045;-78
2023/01/05 07:47:50;;;;;;;6.47;4.00;;;;;;;4.93;74.18;100931.53;10425295;28;20055;-78
2023/01/05 07:52:51;;;;;;;6.93;3.60;;;;;;;4.93;73.54;100911.31;10438379;28;20049;-75
2023/01/05 07:57:52;;;;;;;5.13;3.53;;;;;;;4.46;73.29;100818.44;10446415;28;20041;-78
2023/01/05 08:02:53;;;;;;;5.93;3.67;;;;;;;5.12;73.25;100905.50;10458845;28;20049;-77
2023/01/05 08:07:53;;;;;;;6.70;4.32;;;;;;;4.66;73.44;100830.03;10456831;28;20047;-79
2023/01/05 08:18:20;;;;;;;9.23;4.35;;;;;;;5.20;72.81;100891.69;10455778;28;20143;-79
2023/01/05 08:23:21;;;;;;;7.22;4.22;;;;;;;5.11;73.28;100850.28;10456343;28;20041;-79
2023/01/05 08:28:25;;;;;;;11.52;4.50;;;;;;;5.37;72.82;100887.75;10459030;28;20044;-79
2023/01/05 08:33:26;;;;;;;8.77;5.05;;;;;;;4.82;73.20;100782.34;10445746;28;20047;-80
2023/01/05 08:38:27;;;;;;;8.23;4.50;;;;;;;5.30;73.61;100840.00;10440155;28;20049;-79
2023/01/05 08:43:28;;;;;;;10.32;4.68;;;;;;;5.20;73.47;100796.88;10468744;28;20036;-79
2023/01/05 08:48:29;;;;;;;8.40;5.10;;;;;;;5.16;73.47;100787.56;10469838;28;20044;-80
2023/01/05 08:53:29;;;;;;;7.55;4.85;;;;;;;4.80;73.66;100740.31;10449721;28;20050;-75
2023/01/05 08:58:30;;;;;;;10.50;4.85;;;;;;;5.34;73.55;100815.06;10415124;28;20042;-78
2023/01/05 09:03:31;;;;;;;13.65;5.22;;;;;;;5.03;73.74;100762.22;10439357;28;20071;-81
2023/01/05 09:08:33;;;;;;;8.60;5.00;;;;;;;4.96;74.01;100744.38;10434205;28;20049;-79
2023/01/05 09:13:34;;;;;;;8.23;5.25;;;;;;;5.55;73.79;100835.38;10452703;28;20052;-83
2023/01/05 09:18:36;;;;;;;11.82;7.55;;;;;;;5.24;73.65;100750.91;10450687;28;20087;-78
2023/01/05 09:23:38;;;;;;;11.30;7.10;;;;;;;5.61;73.52;100792.72;10443096;28;20381;-81
2023/01/05 09:28:39;;;;;;;8.65;4.82;;;;;;;5.73;73.46;100773.25;10448925;28;20455;-77
2023/01/05 09:33:40;;;;;;;9.68;5.57;;;;;;;5.87;73.27;100754.50;10424810;28;20041;-77
2023/01/05 09:38:42;;;;;;;7.95;5.20;;;;;;;5.58;73.33;100698.09;10439884;28;20045;-76
2023/01/05 09:43:45;;;;;;;12.32;7.10;;;;;;;5.72;72.63;100690.72;10444565;28;20488;-76
2023/01/05 09:48:51;;;;;;;20.08;7.70;;;;;;;5.93;72.60;100743.50;10459737;28;20037;-76
2023/01/05 09:53:52;;;;;;;7.68;4.95;;;;;;;5.88;73.06;100735.09;10457957;28;20064;-76
2023/01/05 09:59:06;;;;;;;24.90;6.07;;;;;;;6.21;72.33;100766.72;10458836;28;20091;-76
2023/01/05 10:04:15;;;;;;;10.15;6.18;;;;;;;6.09;72.01;100731.66;10452718;28;20041;-76
2023/01/05 10:09:28;;;;;;;10.60;5.68;;;;;;;5.95;72.17;100703.78;10433682;28;20128;-77
2023/01/05 10:14:40;;;;;;;8.00;5.18;;;;;;;6.21;72.31;100753.50;10446524;28;20056;-76
2023/01/05 10:19:42;;;;;;;11.23;6.65;;;;;;;6.20;72.50;100749.22;10456929;28;20147;-76
2023/01/05 10:25:01;;;;;;;8.68;5.68;;;;;;;6.28;71.82;100736.19;10445535;28;20049;-76
2023/01/05 10:30:56;;;;;;;11.77;7.40;;;;;;;6.35;71.17;100719.72;10428559;28;20048;-76
2023/01/05 10:36:01;;;;;;;8.20;5.38;;;;;;;5.31;71.94;100549.25;10437249;28;20068;-77
2023/01/05 10:41:25;;;;;;;14.57;6.95;;;;;;;6.53;71.60;100704.09;10433925;28;20512;-79
2023/01/05 10:46:26;;;;;;;17.63;12.35;;;;;;;6.58;72.14;100709.81;10452847;28;20110;-80
2023/01/05 10:51:35;;;;;;;10.32;5.80;;;;;;;6.65;70.85;100702.19;10462752;28;20097;-76
2023/01/05 10:56:36;;;;;;;17.50;6.45;;;;;;;6.41;71.86;100652.38;10421066;28;20516;-79
2023/01/05 11:01:42;;;;;;;182.35;120.40;;;;;;;6.52;71.54;100656.72;10434561;28;20062;-79
2023/01/05 11:06:43;;;;;;;22.65;12.70;;;;;;;6.31;71.27;100660.28;10449255;28;20078;-78
2023/01/05 11:12:01;;;;;;;12.73;9.00;;;;;;;6.32;72.07;100656.66;10441510;28;20606;-80
2023/01/05 11:17:06;;;;;;;12.20;7.82;;;;;;;6.25;72.98;100658.16;10444642;28;20053;-77
2023/01/05 11:22:38;;;;;;;11.68;7.85;;;;;;;6.56;71.24;100666.06;10438148;28;20139;-76
2023/01/05 11:27:39;;;;;;;21.05;12.68;;;;;;;5.89;72.08;100556.63;10440281;28;20052;-80
2023/01/05 11:32:44;;;;;;;17.00;7.95;;;;;;;6.23;71.79;100622.31;10446961;28;20103;-79
2023/01/05 11:37:45;;;;;;;14.43;9.40;;;;;;;6.48;72.14;100668.50;10442241;28;20561;-82
2023/01/05 11:42:46;;;;;;;18.48;11.88;;;;;;;6.02;73.03;100556.44;10448661;28;20055;-81
2023/01/05 11:48:02;;;;;;;16.23;9.52;;;;;;;6.64;72.34;100642.44;10455341;28;20044;-77
2023/01/05 11:53:02;;;;;;;11.43;7.63;;;;;;;6.08;71.99;100503.16;10441765;28;20044;-76
2023/01/05 11:58:13;;;;;;;11.48;7.90;;;;;;;6.66;72.16;100550.75;10441554;28;20067;-78
2023/01/05 12:03:36;;;;;;;12.40;7.25;;;;;;;6.94;71.13;100591.38;10442278;28;20045;-78
2023/01/05 12:08:42;;;;;;;16.98;8.05;;;;;;;6.57;71.90;100533.94;10444283;28;20056;-77
2023/01/05 12:14:18;;;;;;;13.07;8.10;;;;;;;6.80;71.99;100595.22;10447132;28;20048;-81
2023/01/05 12:19:47;;;;;;;15.07;8.45;;;;;;;6.95;73.23;100618.59;10449373;28;20060;-79
2023/01/05 12:25:21;;;;;;;13.35;7.88;;;;;;;6.98;72.70;100605.94;10448502;28;20037;-79
2023/01/05 12:30:47;;;;;;;12.57;7.93;;;;;;;6.02;72.88;100466.78;10448734;28;20041;-81
2023/01/05 12:36:11;;;;;;;11.27;7.80;;;;;;;6.70;72.19;100610.25;10445354;28;20523;-79
2023/01/05 12:41:27;;;;;;;14.25;8.52;;;;;;;6.58;73.04;100606.03;10457055;28;20056;-81
2023/01/05 12:46:49;;;;;;;16.63;9.00;;;;;;;6.54;74.05;100604.63;10455550;28;20048;-82
2023/01/05 12:52:07;;;;;;;13.27;8.75;;;;;;;6.31;74.56;100569.69;10455871;28;20528;-77
2023/01/05 12:57:16;;;;;;;18.23;7.95;;;;;;;6.44;74.54;100598.50;10454603;28;20044;-80
2023/01/05 13:02:32;;;;;;;13.43;8.48;;;;;;;5.90;74.74;100521.41;10456688;28;20033;-79
2023/01/05 13:08:02;;;;;;;13.85;8.20;;;;;;;6.12;74.29;100581.03;10453938;28;20033;-79
2023/01/05 13:13:12;;;;;;;13.05;7.60;;;;;;;6.08;74.56;100572.56;10449123;28;20786;-78
2023/01/05 13:18:17;;;;;;;10.73;7.35;;;;;;;5.85;74.56;100520.97;10454423;28;20037;-82
2023/01/05 13:23:33;;;;;;;10.73;7.22;;;;;;;6.16;74.88;100593.84;10455472;28;20048;-83
2023/01/05 13:28:34;;;;;;;12.00;8.32;;;;;;;5.90;75.29;100596.06;10454678;28;20062;-79
2023/01/05 13:33:47;;;;;;;15.45;8.65;;;;;;;5.90;75.27;100588.16;10458099;28;20045;-84
2023/01/05 13:39:20;;;;;;;13.32;8.90;;;;;;;5.34;75.66;100484.94;10457345;28;20033;-80
2023/01/05 13:45:00;;;;;;;16.35;8.10;;;;;;;5.94;75.49;100586.09;10426061;28;20045;-83
2023/01/05 13:50:22;;;;;;;11.50;7.38;;;;;;;5.76;75.76;100583.22;10429644;28;20570;-78
2023/01/05 13:55:24;;;;;;;15.55;7.22;;;;;;;5.35;76.05;100528.75;10452029;28;20032;-78
2023/01/05 14:00:31;;;;;;;13.48;8.40;;;;;;;5.43;76.83;100555.28;10439908;28;20044;-78
2023/01/05 14:05:36;;;;;;;11.80;7.85;;;;;;;5.19;77.18;100510.78;10445580;28;20091;-75
2023/01/05 14:10:36;;;;;;;16.83;8.35;;;;;;;5.04;76.85;100494.47;10431450;28;20076;-76
2023/01/05 14:15:39;;;;;;;13.00;7.03;;;;;;;5.35;77.02;100552.47;10452641;28;20182;-78
2023/01/05 14:20:51;;;;;;;12.60;7.03;;;;;;;5.24;78.25;100562.09;10455653;28;20053;-79
2023/01/05 14:25:54;;;;;;;11.27;7.20;;;;;;;4.15;77.86;100406.25;10440330;28;20049;-74
2023/01/05 14:31:09;;;;;;;12.90;8.07;;;;;;;4.98;79.08;100550.28;10439833;28;20068;-76
2023/01/05 14:36:39;;;;;;;17.83;10.23;;;;;;;4.71;80.42;100537.59;10456255;28;20040;-85
2023/01/05 14:41:41;;;;;;;12.63;7.65;;;;;;;4.61;79.43;100553.28;10438285;28;20048;-73
2023/01/05 14:46:47;;;;;;;14.70;7.88;;;;;;;4.16;80.31;100498.19;10447106;28;20099;-74
2023/01/05 14:52:02;;;;;;;12.73;8.35;;;;;;;4.24;81.19;100535.19;10445496;28;20067;-78
2023/01/05 14:57:21;;;;;;;10.30;7.18;;;;;;;4.18;81.86;100540.94;10442344;28;20048;-79
2023/01/05 15:02:28;;;;;;;11.25;7.70;;;;;;;3.91;81.51;100527.34;10470488;28;20044;-78
2023/01/05 15:07:51;;;;;;;9.73;6.78;;;;;;;3.97;82.81;100526.88;10459394;28;20417;-78
2023/01/05 15:13:15;;;;;;;12.48;7.55;;;;;;;3.85;83.53;100515.53;10465377;28;20504;-78
2023/01/05 15:18:29;;;;;;;11.70;7.50;;;;;;;2.70;84.35;100346.75;10461051;28;20499;-78
2023/01/05 15:23:55;;;;;;;12.05;7.28;;;;;;;3.62;84.75;100512.91;10460317;28;20087;-78
2023/01/05 15:29:33;;;;;;;11.98;8.00;;;;;;;2.05;84.37;100271.31;10457159;28;20042;-82
2023/01/05 15:34:56;;;;;;;9.88;7.47;;;;;;;3.61;83.77;100503.34;10431343;28;20420;-82
2023/01/05 15:40:02;;;;;;;12.90;7.95;;;;;;;3.00;83.59;100413.56;10436350;28;20047;-82
2023/01/05 15:45:05;;;;;;;11.65;7.32;;;;;;;3.41;83.79;100462.88;10463517;28;20127;-81
2023/01/05 15:50:17;;;;;;;10.63;7.20;;;;;;;3.18;85.55;100425.28;10470444;28;20566;-82
2023/01/05 15:55:18;;;;;;;12.23;7.90;;;;;;;2.79;84.54;100368.81;10451557;28;20052;-82
2023/01/05 16:00:30;;;;;;;12.13;7.85;;;;;;;2.83;86.01;100372.88;10428378;28;20470;-82
2023/01/05 16:05:34;;;;;;;14.70;8.18;;;;;;;3.35;85.59;100484.38;10412748;28;20202;-82
2023/01/05 16:10:37;;;;;;;;;;;;;;;3.38;85.84;100457.00;10413616;28;20045;-82
2023/01/05 16:15:38;;;;;;;17.02;8.50;;;;;;;3.11;85.48;100442.47;10419825;28;20022;-80
2023/01/05 16:20:41;;;;;;;12.98;8.43;;;;;;;3.22;85.83;100467.88;10442007;28;20453;-80
2023/01/05 16:25:48;;;;;;;12.88;8.25;;;;;;;3.26;87.80;100448.31;10448903;28;20183;-81
2023/01/05 16:30:51;;;;;;;9.90;7.72;;;;;;;3.38;86.91;100459.63;10443909;28;20554;-82
2023/01/05 16:36:16;;;;;;;15.55;8.95;;;;;;;3.12;89.14;100402.13;10447467;28;20044;-81
2023/01/05 16:41:27;;;;;;;11.98;8.75;;;;;;;3.21;88.50;100426.84;10442228;28;20075;-83
2023/01/05 16:46:35;;;;;;;12.40;7.95;;;;;;;3.23;88.54;100414.44;10431992;28;21045;-83
2023/01/05 16:51:39;;;;;;;15.00;9.25;;;;;;;3.37;88.42;100445.69;10446544;28;20033;-84
2023/01/05 16:56:51;;;;;;;13.00;8.82;;;;;;;2.81;89.72;100353.78;10449016;28;20075;-85
2023/01/05 17:01:52;;;;;;;12.13;8.70;;;;;;;3.34;88.63;100450.34;10447164;28;20033;-83
2023/01/05 17:06:53;;;;;;;14.05;8.15;;;;;;;3.17;88.51;100444.63;10433591;28;20492;-84
2023/01/05 17:11:54;;;;;;;13.30;9.00;;;;;;;2.04;88.83;100248.69;10427695;28;20041;-86
2023/01/05 17:16:54;;;;;;;12.75;9.13;;;;;;;1.96;89.12;100244.00;10440789;28;20436;-86
2023/01/05 17:22:00;;;;;;;12.52;8.32;;;;;;;3.07;89.60;100422.63;10449097;28;20064;-82
2023/01/05 17:27:01;;;;;;;12.63;8.38;;;;;;;3.05;88.95;100406.19;10449649;28;20098;-88
2023/01/05 17:32:02;;;;;;;11.63;8.48;;;;;;;2.16;89.06;100260.84;10453864;28;20132;-86
2023/01/05 17:37:03;;;;;;;14.57;9.35;;;;;;;2.93;89.51;100402.72;10454718;28;20143;-87
2023/01/05 17:47:23;;;;;;;14.70;10.57;;;;;;;2.74;89.62;100374.41;10460216;28;20037;-84
2023/01/05 17:52:24;;;;;;;12.93;8.85;;;;;;;2.24;89.90;100281.22;10458878;28;20051;-84
2023/01/05 17:57:24;;;;;;;17.63;10.18;;;;;;;2.89;90.38;100372.41;10460025;28;20048;-85
2023/01/05 18:02:25;;;;;;;16.92;10.00;;;;;;;2.16;90.16;100245.13;10459288;28;20480;-84
2023/01/05 18:07:29;;;;;;;15.55;10.50;;;;;;;2.38;91.17;100269.72;10458875;28;20544;-84
2023/01/05 18:12:32;;;;;;;16.95;10.63;;;;;;;2.62;90.49;100307.16;10458757;28;20064;-83
2023/01/05 18:17:33;;;;;;;16.52;10.45;;;;;;;2.87;90.83;100323.63;10459386;28;20045;-85
2023/01/05 18:22:34;;;;;;;17.52;10.57;;;;;;;2.73;90.87;100327.31;10457365;28;20066;-83
2023/01/05 18:27:36;;;;;;;17.02;11.00;;;;;;;2.13;90.91;100232.25;10458885;28;20055;-85
2023/01/05 18:32:38;;;;;;;18.17;10.98;;;;;;;2.08;91.54;100244.03;10459164;28;20105;-85
2023/01/05 18:37:39;;;;;;;19.38;11.70;;;;;;;2.24;91.81;100281.22;10452876;28;20049;-85
2023/01/05 18:42:40;;;;;;;20.77;12.18;;;;;;;2.41;91.97;100324.53;10415996;28;20049;-85
2023/01/05 18:47:40;;;;;;;16.77;10.40;;;;;;;2.28;91.88;100317.59;10416482;28;20048;-85
2023/01/05 18:52:41;;;;;;;23.65;12.13;;;;;;;2.05;92.31;100293.09;10433671;28;20033;-84
2023/01/05 18:57:42;;;;;;;17.92;11.95;;;;;;;1.85;92.24;100285.06;10456897;28;20556;-84
2023/01/05 19:02:43;;;;;;;16.40;11.20;;;;;;;1.85;92.30;100298.16;10439929;28;20071;-85
2023/01/05 19:07:44;;;;;;;18.27;11.25;;;;;;;1.77;92.49;100276.00;10455340;28;20052;-83
2023/01/05 19:12:45;;;;;;;19.17;11.90;;;;;;;1.61;92.67;100254.47;10456890;28;20056;-84
2023/01/05 19:17:48;;;;;;;17.35;12.07;;;;;;;1.54;93.49;100241.00;10456996;28;20526;-84
2023/01/05 19:22:50;;;;;;;20.08;12.20;;;;;;;1.62;93.95;100237.84;10456008;28;20048;-85
2023/01/05 19:27:51;;;;;;;19.05;12.38;;;;;;;1.04;93.61;100116.50;10456982;28;20047;-85
2023/01/05 19:32:52;;;;;;;19.83;13.45;;;;;;;1.69;93.85;100225.94;10456210;28;20040;-81
2023/01/05 19:37:52;;;;;;;18.58;12.80;;;;;;;1.06;93.61;100120.66;10454715;28;20120;-81
2023/01/05 19:42:54;;;;;;;21.92;13.93;;;;;;;1.12;94.23;100141.16;10455941;28;20132;-82
2023/01/05 19:47:55;;;;;;;20.00;13.07;;;;;;;1.48;94.10;100190.91;10453940;28;20045;-83
2023/01/05 19:52:55;;;;;;;19.83;13.55;;;;;;;0.98;94.50;100109.09;10455412;28;20048;-83
2023/01/05 19:57:56;;;;;;;18.85;13.18;;;;;;;1.37;94.68;100158.47;10454842;28;20033;-82
2023/01/05 20:02:57;;;;;;;23.42;13.10;;;;;;;1.41;94.50;100172.19;10454498;28;20037;-81
2023/01/05 20:07:58;;;;;;;23.50;13.70;;;;;;;1.67;94.63;100219.16;10440559;28;20123;-81
2023/01/05 20:12:59;;;;;;;19.70;12.65;;;;;;;1.35;94.93;100155.16;10414742;28;20083;-82
2023/01/05 20:17:59;;;;;;;22.15;12.75;;;;;;;1.54;94.84;100201.75;10441244;28;20632;-81
2023/01/05 20:23:00;;;;;;;24.98;13.40;;;;;;;1.46;94.81;100179.69;10454461;28;20515;-80
2023/01/05 20:28:01;;;;;;;24.67;12.25;;;;;;;1.34;94.66;100163.09;10454264;28;20064;-82
2023/01/05 20:33:04;;;;;;;28.15;15.00;;;;;;;1.05;95.71;100098.09;10452281;28;20098;-81
2023/01/05 20:38:04;;;;;;;23.65;13.60;;;;;;;1.20;95.67;100111.81;10447408;28;20041;-81
2023/01/05 20:43:05;;;;;;;24.05;13.60;;;;;;;1.02;95.18;100053.84;10453094;28;20052;-80
2023/01/05 20:48:06;;;;;;;24.17;14.80;;;;;;;1.24;95.03;100075.78;10420833;28;20500;-83
2023/01/05 20:53:07;;;;;;;20.55;14.23;;;;;;;1.70;95.16;100154.28;10411992;28;20488;-84
2023/01/05 20:58:08;;;;;;;21.13;14.70;;;;;;;1.24;95.78;100066.13;10417334;28;20052;-83
2023/01/05 21:03:08;;;;;;;25.08;15.25;;;;;;;1.58;95.96;100097.63;10444661;28;20041;-84
2023/01/05 21:08:09;;;;;;;30.80;17.05;;;;;;;1.28;96.13;100020.47;10460701;28;20028;-84
2023/01/05 21:13:10;;;;;;;29.70;17.52;;;;;;;1.82;96.56;100093.16;10460373;28;20160;-83
2023/01/05 21:18:11;;;;;;;28.48;17.75;;;;;;;1.29;96.69;100011.69;10459191;28;20131;-83
2023/01/05 21:23:12;;;;;;;29.85;17.60;;;;;;;1.33;96.99;100020.97;10460659;28;20484;-84
2023/01/05 21:28:14;;;;;;;28.45;17.73;;;;;;;1.83;98.05;100089.56;10460465;28;20132;-80
2023/01/05 21:33:15;;;;;;;27.15;16.67;;;;;;;1.42;98.42;99995.03;10461452;28;20043;-82
2023/01/05 21:38:16;;;;;;;28.80;17.98;;;;;;;1.47;97.91;99987.69;10460285;28;20555;-82
2023/01/05 21:43:17;;;;;;;29.40;19.10;;;;;;;1.40;98.13;99970.75;10459452;28;20464;-82
2023/01/05 21:48:17;;;;;;;28.55;18.13;;;;;;;2.04;97.98;100065.28;10460126;28;20040;-82
2023/01/05 21:58:37;;;;;;;32.00;19.30;;;;;;;2.04;98.11;100062.66;10459667;28;20036;-82
2023/01/05 22:03:38;;;;;;;29.92;17.45;;;;;;;2.00;98.30;100069.06;10459168;28;20040;-82
2023/01/05 22:08:39;;;;;;;29.60;17.80;;;;;;;1.88;97.79;100049.06;10457286;28;20139;-82
2023/01/05 22:13:40;;;;;;;30.05;17.85;;;;;;;1.77;98.34;100037.66;10458406;28;20110;-82
2023/01/05 22:18:41;;;;;;;32.03;19.10;;;;;;;1.82;99.02;100030.28;10459449;28;20053;-82
2023/01/05 22:23:42;;;;;;;23.85;15.25;;;;;;;1.36;98.72;99954.47;10458376;28;20037;-81
2023/01/05 22:28:44;;;;;;;31.55;18.33;;;;;;;1.75;98.65;100029.06;10457844;28;20051;-81
2023/01/05 22:33:48;;;;;;;26.92;17.45;;;;;;;1.71;99.12;100017.19;10458182;28;20044;-81
2023/01/05 22:38:51;;;;;;;28.03;17.93;;;;;;;1.80;98.98;100036.59;10454419;28;20132;-82
2023/01/05 22:43:52;;;;;;;26.70;17.30;;;;;;;1.48;99.18;99998.00;10438498;28;20303;-82
2023/01/05 22:48:54;;;;;;;25.98;16.52;;;;;;;1.67;98.55;100041.91;10457190;28;20588;-81
2023/01/05 22:53:56;;;;;;;23.33;15.00;;;;;;;1.13;97.87;99990.22;10456712;28;20041;-80
2023/01/05 22:58:57;;;;;;;28.52;16.70;;;;;;;1.29;98.17;100011.69;10456940;28;20048;-80
2023/01/05 23:04:00;;;;;;;26.77;15.55;;;;;;;1.27;98.06;100015.38;10457246;28;20049;-80
2023/01/05 23:09:02;;;;;;;30.50;17.83;;;;;;;1.26;98.21;100016.31;10456379;28;20041;-81
2023/01/05 23:14:07;;;;;;;32.30;16.63;;;;;;;1.18;97.82;100018.69;10456206;28;20056;-81
2023/01/05 23:19:08;;;;;;;25.80;15.32;;;;;;;0.59;96.93;99918.44;10455130;28;20507;-81
2023/01/05 23:24:09;;;;;;;28.02;17.25;;;;;;;1.06;97.59;99983.81;10455324;28;20076;-81
2023/01/05 23:29:10;;;;;;;32.28;18.70;;;;;;;0.63;97.65;99926.91;10455544;28;20037;-80
2023/01/05 23:34:11;;;;;;;23.40;16.42;;;;;;;1.07;97.87;100004.59;10455044;28;20041;-81
2023/01/05 23:39:11;;;;;;;29.20;16.42;;;;;;;0.44;97.55;99914.34;10455166;28;20044;-82
2023/01/05 23:44:13;;;;;;;31.20;18.88;;;;;;;0.80;97.73;99972.69;10453256;28;20071;-81
2023/01/05 23:49:14;;;;;;;29.95;18.60;;;;;;;1.04;98.58;99993.53;10433145;28;20041;-80
2023/01/05 23:54:14;;;;;;;30.38;18.08;;;;;;;1.15;98.69;99998.81;10424414;28;20493;-81
2023/01/05 23:59:15;;;;;;;32.47;18.33;;;;;;;0.31;98.78;99853.50;10451169;28;20040;-81
